This is the latest recevied weather packets stored in our database for station/object IK2ILW-4. If no packets are shown the sender has not sent any weather packets the latest 10 day(s).
| Time | Temp. | Humidity | Pressure | Rain* | Wind** | Luminosity | Snow |
|---|---|---|---|---|---|---|---|
| 1777285683 | 15° C | 64% | 1018.9 hPa | 0 mm | - | 264 W/m² | - |
| 1777285367 | 14.44° C | 64% | 1018.9 hPa | 0 mm | - | 213 W/m² | - |
| 1777285081 | 15° C | 62% | 1018.9 hPa | 0 mm | - | 211 W/m² | - |
| 1777284770 | 15° C | 62% | 1018.7 hPa | 0 mm | - | 216 W/m² | - |
| 1777284455 | 15.56° C | 61% | 1018.7 hPa | 0 mm | - | 863 W/m² | - |
| 1777284172 | 15.56° C | 62% | 1018.7 hPa | 0 mm | - | 863 W/m² | - |
| 1777283865 | 15° C | 62% | 1019 hPa | 0 mm | - | 860 W/m² | - |
| 1777276356 | 13.33° C | 67% | 1019.3 hPa | 0 mm | - | 577 W/m² | - |
| 1777276073 | 13.33° C | 66% | 1019.3 hPa | 0 mm | - | 566 W/m² | - |
| 1777275761 | 13.33° C | 66% | 1019.4 hPa | 0 mm | - | 554 W/m² | - |
| 1777275477 | 12.78° C | 67% | 1019.4 hPa | 0 mm | - | 541 W/m² | - |
| 1777275162 | 12.78° C | 67% | 1019.4 hPa | 0 mm | - | 524 W/m² | - |
| 1777274878 | 12.78° C | 67% | 1019.5 hPa | 0 mm | - | 508 W/m² | - |
| 1777274562 | 13.33° C | 66% | 1019.5 hPa | 0 mm | - | 496 W/m² | - |
| 1777274279 | 12.78° C | 66% | 1019.5 hPa | 0 mm | - | 480 W/m² | - |
| 1777273964 | 12.78° C | 67% | 1019.3 hPa | 0 mm | - | 464 W/m² | - |
| 1777273680 | 13.33° C | 66% | 1019.3 hPa | 0 mm | - | 450 W/m² | - |
| 1777273369 | 13.33° C | 69% | 1019.3 hPa | 0 mm | - | 439 W/m² | - |
| 1777273055 | 12.78° C | 70% | 1019.5 hPa | 0 mm | - | 424 W/m² | - |
| 1777272768 | 13.33° C | 67% | 1019.5 hPa | 0 mm | - | 404 W/m² | - |
| 1777272453 | 13.33° C | 68% | 1019.5 hPa | 0 mm | - | 390 W/m² | - |
| 1777272173 | 13.33° C | 69% | 1019.5 hPa | 0 mm | - | 366 W/m² | - |
| 1777271858 | 12.78° C | 68% | 1019.5 hPa | 0 mm | - | 353 W/m² | - |
| 1777271574 | 12.78° C | 67% | 1019.5 hPa | 0 mm | - | 158 W/m² | - |
| 1777271262 | 12.78° C | 68% | 1019.6 hPa | 0 mm | - | 313 W/m² | - |
* Rain since midnight (hover to see other rain measurements)
** Current wind speed in m/s (hover to see current wind gust speed)